sensor_id;sensor_type;location;lat;lon;timestamp;temperature;humidity
16408;DHT22;8313;49.894;8.084;2023-06-22T00:00:49;26.30;96.70
16408;DHT22;8313;49.894;8.084;2023-06-22T00:03:19;26.20;97.00
16408;DHT22;8313;49.894;8.084;2023-06-22T00:05:49;26.00;97.20
16408;DHT22;8313;49.894;8.084;2023-06-22T00:08:15;25.90;97.30
16408;DHT22;8313;49.894;8.084;2023-06-22T00:10:42;26.10;97.10
16408;DHT22;8313;49.894;8.084;2023-06-22T00:13:08;26.20;96.90
16408;DHT22;8313;49.894;8.084;2023-06-22T00:15:36;26.30;96.70
16408;DHT22;8313;49.894;8.084;2023-06-22T00:18:02;26.40;96.70
16408;DHT22;8313;49.894;8.084;2023-06-22T00:20:28;26.40;96.70
16408;DHT22;8313;49.894;8.084;2023-06-22T00:22:58;26.40;96.60
16408;DHT22;8313;49.894;8.084;2023-06-22T00:25:24;26.40;96.50
16408;DHT22;8313;49.894;8.084;2023-06-22T00:27:50;26.40;96.40
16408;DHT22;8313;49.894;8.084;2023-06-22T00:30:16;26.40;96.70
16408;DHT22;8313;49.894;8.084;2023-06-22T00:32:43;26.30;96.90
16408;DHT22;8313;49.894;8.084;2023-06-22T00:35:09;26.20;97.60
16408;DHT22;8313;49.894;8.084;2023-06-22T00:37:36;26.00;98.50
16408;DHT22;8313;49.894;8.084;2023-06-22T00:40:02;25.70;99.50
16408;DHT22;8313;49.894;8.084;2023-06-22T00:42:30;25.70;99.90
16408;DHT22;8313;49.894;8.084;2023-06-22T00:44:55;25.70;99.90
16408;DHT22;8313;49.894;8.084;2023-06-22T00:47:23;25.70;99.90
16408;DHT22;8313;49.894;8.084;2023-06-22T00:49:49;25.70;99.90
16408;DHT22;8313;49.894;8.084;2023-06-22T00:52:20;25.60;99.90
16408;DHT22;8313;49.894;8.084;2023-06-22T00:54:48;25.30;99.90
16408;DHT22;8313;49.894;8.084;2023-06-22T00:57:17;25.50;99.90
16408;DHT22;8313;49.894;8.084;2023-06-22T00:59:44;25.70;99.90
16408;DHT22;8313;49.894;8.084;2023-06-22T01:02:10;25.60;99.90
16408;DHT22;8313;49.894;8.084;2023-06-22T01:04:37;25.60;99.90
16408;DHT22;8313;49.894;8.084;2023-06-22T01:07:30;25.60;99.90
16408;DHT22;8313;49.894;8.084;2023-06-22T01:10:04;25.60;99.90
16408;DHT22;8313;49.894;8.084;2023-06-22T01:12:37;25.60;99.90
16408;DHT22;8313;49.894;8.084;2023-06-22T01:15:44;25.60;99.90
16408;DHT22;8313;49.894;8.084;2023-06-22T01:18:13;25.60;99.90
16408;DHT22;8313;49.894;8.084;2023-06-22T01:20:40;25.50;99.90
16408;DHT22;8313;49.894;8.084;2023-06-22T01:25:47;25.40;99.90
16408;DHT22;8313;49.894;8.084;2023-06-22T01:31:01;25.30;99.90
16408;DHT22;8313;49.894;8.084;2023-06-22T01:33:33;25.40;99.90
16408;DHT22;8313;49.894;8.084;2023-06-22T01:36:01;25.40;99.90
16408;DHT22;8313;49.894;8.084;2023-06-22T01:38:28;25.40;99.90
16408;DHT22;8313;49.894;8.084;2023-06-22T01:40:55;25.30;99.90
16408;DHT22;8313;49.894;8.084;2023-06-22T01:43:21;25.40;99.90
16408;DHT22;8313;49.894;8.084;2023-06-22T01:45:49;25.40;99.90
16408;DHT22;8313;49.894;8.084;2023-06-22T01:48:15;25.30;99.90
16408;DHT22;8313;49.894;8.084;2023-06-22T01:50:41;25.10;99.90
16408;DHT22;8313;49.894;8.084;2023-06-22T01:53:07;25.10;99.90
16408;DHT22;8313;49.894;8.084;2023-06-22T01:55:32;25.10;99.90
16408;DHT22;8313;49.894;8.084;2023-06-22T01:57:58;25.10;99.90
16408;DHT22;8313;49.894;8.084;2023-06-22T02:00:25;25.10;99.90
16408;DHT22;8313;49.894;8.084;2023-06-22T02:02:56;25.20;99.90
16408;DHT22;8313;49.894;8.084;2023-06-22T02:05:26;25.20;99.90
16408;DHT22;8313;49.894;8.084;2023-06-22T02:08:11;25.30;99.90
16408;DHT22;8313;49.894;8.084;2023-06-22T02:10:40;25.30;99.90
16408;DHT22;8313;49.894;8.084;2023-06-22T02:13:08;25.30;99.90
16408;DHT22;8313;49.894;8.084;2023-06-22T02:15:34;25.30;99.90
16408;DHT22;8313;49.894;8.084;2023-06-22T02:18:00;25.30;99.90
16408;DHT22;8313;49.894;8.084;2023-06-22T02:20:26;25.20;99.90
16408;DHT22;8313;49.894;8.084;2023-06-22T02:22:52;25.10;99.90
16408;DHT22;8313;49.894;8.084;2023-06-22T02:25:17;25.00;99.90
16408;DHT22;8313;49.894;8.084;2023-06-22T02:27:45;24.90;99.90
16408;DHT22;8313;49.894;8.084;2023-06-22T02:30:12;24.50;99.90
16408;DHT22;8313;49.894;8.084;2023-06-22T02:32:38;24.60;99.90
16408;DHT22;8313;49.894;8.084;2023-06-22T02:35:07;24.70;99.90
16408;DHT22;8313;49.894;8.084;2023-06-22T02:37:35;24.90;99.90
16408;DHT22;8313;49.894;8.084;2023-06-22T02:40:01;24.90;99.90
16408;DHT22;8313;49.894;8.084;2023-06-22T02:42:29;24.90;99.90
16408;DHT22;8313;49.894;8.084;2023-06-22T02:44:55;24.90;99.90
16408;DHT22;8313;49.894;8.084;2023-06-22T02:47:20;25.00;99.90
16408;DHT22;8313;49.894;8.084;2023-06-22T02:49:46;24.90;99.90
16408;DHT22;8313;49.894;8.084;2023-06-22T02:52:12;24.90;99.90
16408;DHT22;8313;49.894;8.084;2023-06-22T02:54:38;24.90;99.90
16408;DHT22;8313;49.894;8.084;2023-06-22T02:57:04;24.80;99.90
16408;DHT22;8313;49.894;8.084;2023-06-22T02:59:30;24.90;99.90
16408;DHT22;8313;49.894;8.084;2023-06-22T03:02:02;24.90;99.90
16408;DHT22;8313;49.894;8.084;2023-06-22T03:04:30;24.80;99.90
16408;DHT22;8313;49.894;8.084;2023-06-22T03:06:57;24.80;99.90
16408;DHT22;8313;49.894;8.084;2023-06-22T03:09:28;24.80;99.90
16408;DHT22;8313;49.894;8.084;2023-06-22T03:11:55;24.80;99.90
16408;DHT22;8313;49.894;8.084;2023-06-22T03:14:23;24.80;99.90
16408;DHT22;8313;49.894;8.084;2023-06-22T03:16:50;24.80;99.90
16408;DHT22;8313;49.894;8.084;2023-06-22T03:19:18;24.90;99.90
16408;DHT22;8313;49.894;8.084;2023-06-22T03:21:45;24.80;99.90
16408;DHT22;8313;49.894;8.084;2023-06-22T03:24:10;24.80;99.90
16408;DHT22;8313;49.894;8.084;2023-06-22T03:26:37;24.70;99.90
16408;DHT22;8313;49.894;8.084;2023-06-22T03:29:03;24.70;99.90
16408;DHT22;8313;49.894;8.084;2023-06-22T03:31:29;24.60;99.90
16408;DHT22;8313;49.894;8.084;2023-06-22T03:33:55;24.60;99.90
16408;DHT22;8313;49.894;8.084;2023-06-22T03:36:23;24.60;99.90
16408;DHT22;8313;49.894;8.084;2023-06-22T03:38:49;24.60;99.90
16408;DHT22;8313;49.894;8.084;2023-06-22T03:41:16;24.60;99.90
16408;DHT22;8313;49.894;8.084;2023-06-22T03:43:42;24.60;99.90
16408;DHT22;8313;49.894;8.084;2023-06-22T03:46:08;24.60;99.90
16408;DHT22;8313;49.894;8.084;2023-06-22T03:48:34;24.60;99.90
16408;DHT22;8313;49.894;8.084;2023-06-22T03:51:00;24.50;99.90
16408;DHT22;8313;49.894;8.084;2023-06-22T03:53:26;24.50;99.90
16408;DHT22;8313;49.894;8.084;2023-06-22T03:55:52;24.50;99.90
16408;DHT22;8313;49.894;8.084;2023-06-22T03:58:20;24.50;99.90
16408;DHT22;8313;49.894;8.084;2023-06-22T04:00:51;24.40;99.90
16408;DHT22;8313;49.894;8.084;2023-06-22T04:03:17;24.30;99.90
16408;DHT22;8313;49.894;8.084;2023-06-22T04:05:46;24.40;99.90
16408;DHT22;8313;49.894;8.084;2023-06-22T04:08:13;24.40;99.90
16408;DHT22;8313;49.894;8.084;2023-06-22T04:10:39;24.50;99.90
16408;DHT22;8313;49.894;8.084;2023-06-22T04:13:05;24.40;99.90
16408;DHT22;8313;49.894;8.084;2023-06-22T04:15:30;24.40;99.90
16408;DHT22;8313;49.894;8.084;2023-06-22T04:17:56;24.40;99.90
16408;DHT22;8313;49.894;8.084;2023-06-22T04:20:23;24.40;99.90
16408;DHT22;8313;49.894;8.084;2023-06-22T04:22:53;24.40;99.90
16408;DHT22;8313;49.894;8.084;2023-06-22T04:25:19;24.30;99.90
16408;DHT22;8313;49.894;8.084;2023-06-22T04:27:45;23.90;99.90
16408;DHT22;8313;49.894;8.084;2023-06-22T04:30:11;24.10;99.90
16408;DHT22;8313;49.894;8.084;2023-06-22T04:32:40;24.10;99.90
16408;DHT22;8313;49.894;8.084;2023-06-22T04:35:06;24.10;99.90
16408;DHT22;8313;49.894;8.084;2023-06-22T04:37:33;24.10;99.90
16408;DHT22;8313;49.894;8.084;2023-06-22T04:39:59;24.10;99.90
16408;DHT22;8313;49.894;8.084;2023-06-22T04:42:26;24.10;99.90
16408;DHT22;8313;49.894;8.084;2023-06-22T04:44:52;24.20;99.90
16408;DHT22;8313;49.894;8.084;2023-06-22T04:47:18;24.20;99.90
16408;DHT22;8313;49.894;8.084;2023-06-22T04:49:43;24.30;99.90
16408;DHT22;8313;49.894;8.084;2023-06-22T04:52:11;24.30;99.90
16408;DHT22;8313;49.894;8.084;2023-06-22T04:54:39;24.30;99.90
16408;DHT22;8313;49.894;8.084;2023-06-22T04:57:07;24.30;99.90
16408;DHT22;8313;49.894;8.084;2023-06-22T04:59:37;24.30;99.90
16408;DHT22;8313;49.894;8.084;2023-06-22T05:02:04;24.30;99.90
16408;DHT22;8313;49.894;8.084;2023-06-22T05:04:31;24.20;99.90
16408;DHT22;8313;49.894;8.084;2023-06-22T05:06:58;24.20;99.90
16408;DHT22;8313;49.894;8.084;2023-06-22T05:09:24;24.20;99.90
16408;DHT22;8313;49.894;8.084;2023-06-22T05:11:52;24.20;99.90
16408;DHT22;8313;49.894;8.084;2023-06-22T05:14:18;24.20;99.90
16408;DHT22;8313;49.894;8.084;2023-06-22T05:16:45;24.20;99.90
16408;DHT22;8313;49.894;8.084;2023-06-22T05:19:11;24.20;99.90
16408;DHT22;8313;49.894;8.084;2023-06-22T05:21:37;24.20;99.90
16408;DHT22;8313;49.894;8.084;2023-06-22T05:24:04;24.20;99.90
16408;DHT22;8313;49.894;8.084;2023-06-22T05:26:31;24.20;99.90
16408;DHT22;8313;49.894;8.084;2023-06-22T05:28:57;24.20;99.90
16408;DHT22;8313;49.894;8.084;2023-06-22T05:31:23;24.20;99.90
16408;DHT22;8313;49.894;8.084;2023-06-22T05:33:51;24.20;99.90
16408;DHT22;8313;49.894;8.084;2023-06-22T05:36:17;24.20;99.90
16408;DHT22;8313;49.894;8.084;2023-06-22T05:38:45;24.30;99.90
16408;DHT22;8313;49.894;8.084;2023-06-22T05:41:11;24.30;99.90
16408;DHT22;8313;49.894;8.084;2023-06-22T05:43:37;24.30;99.90
16408;DHT22;8313;49.894;8.084;2023-06-22T05:46:03;24.30;99.90
16408;DHT22;8313;49.894;8.084;2023-06-22T05:48:29;24.30;99.90
16408;DHT22;8313;49.894;8.084;2023-06-22T05:50:55;24.30;99.90
16408;DHT22;8313;49.894;8.084;2023-06-22T05:53:21;24.40;99.90
16408;DHT22;8313;49.894;8.084;2023-06-22T05:55:47;24.40;99.90
16408;DHT22;8313;49.894;8.084;2023-06-22T05:58:12;24.40;99.90
16408;DHT22;8313;49.894;8.084;2023-06-22T06:00:41;24.40;99.90
16408;DHT22;8313;49.894;8.084;2023-06-22T06:03:08;24.40;99.90
16408;DHT22;8313;49.894;8.084;2023-06-22T06:05:35;24.50;99.90
16408;DHT22;8313;49.894;8.084;2023-06-22T06:08:02;24.50;99.90
16408;DHT22;8313;49.894;8.084;2023-06-22T06:10:28;24.50;99.90
16408;DHT22;8313;49.894;8.084;2023-06-22T06:12:55;24.60;99.90
16408;DHT22;8313;49.894;8.084;2023-06-22T06:15:21;24.60;99.90
16408;DHT22;8313;49.894;8.084;2023-06-22T06:17:48;24.60;99.90
16408;DHT22;8313;49.894;8.084;2023-06-22T06:20:13;24.60;99.90
16408;DHT22;8313;49.894;8.084;2023-06-22T06:22:39;24.70;99.90
16408;DHT22;8313;49.894;8.084;2023-06-22T06:25:05;24.70;99.90
16408;DHT22;8313;49.894;8.084;2023-06-22T06:27:31;24.70;99.90
16408;DHT22;8313;49.894;8.084;2023-06-22T06:29:57;24.80;99.90
16408;DHT22;8313;49.894;8.084;2023-06-22T06:32:22;24.80;99.90
16408;DHT22;8313;49.894;8.084;2023-06-22T06:34:48;24.80;99.90
16408;DHT22;8313;49.894;8.084;2023-06-22T06:37:13;24.80;99.90
16408;DHT22;8313;49.894;8.084;2023-06-22T06:39:39;24.90;99.90
16408;DHT22;8313;49.894;8.084;2023-06-22T06:42:05;24.90;99.90
16408;DHT22;8313;49.894;8.084;2023-06-22T06:44:31;25.00;99.90
16408;DHT22;8313;49.894;8.084;2023-06-22T06:46:56;25.00;99.90
16408;DHT22;8313;49.894;8.084;2023-06-22T06:49:22;25.10;99.90
16408;DHT22;8313;49.894;8.084;2023-06-22T06:51:48;25.10;99.90
16408;DHT22;8313;49.894;8.084;2023-06-22T06:54:13;25.10;99.90
16408;DHT22;8313;49.894;8.084;2023-06-22T06:56:39;25.00;99.90
16408;DHT22;8313;49.894;8.084;2023-06-22T06:59:05;25.10;99.90
16408;DHT22;8313;49.894;8.084;2023-06-22T07:01:30;25.20;99.90
16408;DHT22;8313;49.894;8.084;2023-06-22T07:03:59;25.30;99.90
16408;DHT22;8313;49.894;8.084;2023-06-22T07:06:25;25.30;99.90
16408;DHT22;8313;49.894;8.084;2023-06-22T07:08:55;25.40;99.90
16408;DHT22;8313;49.894;8.084;2023-06-22T07:11:21;25.50;99.90
16408;DHT22;8313;49.894;8.084;2023-06-22T07:13:46;25.50;99.90
16408;DHT22;8313;49.894;8.084;2023-06-22T07:16:12;25.50;99.90
16408;DHT22;8313;49.894;8.084;2023-06-22T07:18:39;25.60;99.90
16408;DHT22;8313;49.894;8.084;2023-06-22T07:21:05;25.70;99.90
16408;DHT22;8313;49.894;8.084;2023-06-22T07:23:32;25.80;99.90
16408;DHT22;8313;49.894;8.084;2023-06-22T07:25:58;25.90;99.90
16408;DHT22;8313;49.894;8.084;2023-06-22T07:28:27;25.90;99.90
16408;DHT22;8313;49.894;8.084;2023-06-22T07:30:53;25.90;99.90
16408;DHT22;8313;49.894;8.084;2023-06-22T07:33:18;26.00;99.90
16408;DHT22;8313;49.894;8.084;2023-06-22T07:35:45;26.00;99.90
16408;DHT22;8313;49.894;8.084;2023-06-22T07:38:12;26.10;99.90
16408;DHT22;8313;49.894;8.084;2023-06-22T07:40:37;26.20;99.90
16408;DHT22;8313;49.894;8.084;2023-06-22T07:43:03;26.30;99.90
16408;DHT22;8313;49.894;8.084;2023-06-22T07:45:29;26.30;99.90
16408;DHT22;8313;49.894;8.084;2023-06-22T07:47:55;26.20;99.90
16408;DHT22;8313;49.894;8.084;2023-06-22T07:50:20;26.30;99.90
16408;DHT22;8313;49.894;8.084;2023-06-22T07:52:46;26.50;99.90
16408;DHT22;8313;49.894;8.084;2023-06-22T07:55:13;26.60;99.90
16408;DHT22;8313;49.894;8.084;2023-06-22T07:57:39;26.70;99.90
16408;DHT22;8313;49.894;8.084;2023-06-22T08:00:07;26.70;99.90
16408;DHT22;8313;49.894;8.084;2023-06-22T08:02:45;26.70;99.90
16408;DHT22;8313;49.894;8.084;2023-06-22T08:05:11;26.90;99.90
16408;DHT22;8313;49.894;8.084;2023-06-22T08:07:38;26.90;99.90
16408;DHT22;8313;49.894;8.084;2023-06-22T08:10:05;27.00;99.90
16408;DHT22;8313;49.894;8.084;2023-06-22T08:12:31;27.10;99.90
16408;DHT22;8313;49.894;8.084;2023-06-22T08:14:57;27.20;99.90
16408;DHT22;8313;49.894;8.084;2023-06-22T08:17:24;27.20;99.90
16408;DHT22;8313;49.894;8.084;2023-06-22T08:19:50;27.20;99.90
16408;DHT22;8313;49.894;8.084;2023-06-22T08:22:16;27.20;99.90
16408;DHT22;8313;49.894;8.084;2023-06-22T08:24:42;27.30;99.90
16408;DHT22;8313;49.894;8.084;2023-06-22T08:27:08;27.30;99.90
16408;DHT22;8313;49.894;8.084;2023-06-22T08:29:41;27.40;99.90
16408;DHT22;8313;49.894;8.084;2023-06-22T08:32:11;27.60;99.90
16408;DHT22;8313;49.894;8.084;2023-06-22T08:34:38;27.70;99.90
16408;DHT22;8313;49.894;8.084;2023-06-22T08:37:08;27.60;99.90
16408;DHT22;8313;49.894;8.084;2023-06-22T08:39:34;27.70;99.90
16408;DHT22;8313;49.894;8.084;2023-06-22T08:42:00;27.80;99.90
16408;DHT22;8313;49.894;8.084;2023-06-22T08:44:26;27.90;99.90
16408;DHT22;8313;49.894;8.084;2023-06-22T08:46:51;27.80;99.90
16408;DHT22;8313;49.894;8.084;2023-06-22T08:49:17;27.80;99.90
16408;DHT22;8313;49.894;8.084;2023-06-22T08:51:42;27.90;99.90
16408;DHT22;8313;49.894;8.084;2023-06-22T08:54:11;28.10;99.90
16408;DHT22;8313;49.894;8.084;2023-06-22T08:56:36;28.20;99.90
16408;DHT22;8313;49.894;8.084;2023-06-22T08:59:02;28.20;99.90
16408;DHT22;8313;49.894;8.084;2023-06-22T09:01:28;28.30;99.90
16408;DHT22;8313;49.894;8.084;2023-06-22T09:03:53;28.20;99.90
16408;DHT22;8313;49.894;8.084;2023-06-22T09:06:23;28.20;99.90
16408;DHT22;8313;49.894;8.084;2023-06-22T09:08:50;28.10;99.90
16408;DHT22;8313;49.894;8.084;2023-06-22T09:11:16;28.10;99.90
16408;DHT22;8313;49.894;8.084;2023-06-22T09:13:42;28.10;99.90
16408;DHT22;8313;49.894;8.084;2023-06-22T09:16:08;28.10;99.90
16408;DHT22;8313;49.894;8.084;2023-06-22T09:18:34;28.20;99.90
16408;DHT22;8313;49.894;8.084;2023-06-22T09:21:00;28.20;99.90
16408;DHT22;8313;49.894;8.084;2023-06-22T09:23:26;28.30;99.90
16408;DHT22;8313;49.894;8.084;2023-06-22T09:25:51;28.50;99.90
16408;DHT22;8313;49.894;8.084;2023-06-22T09:28:17;28.50;99.90
16408;DHT22;8313;49.894;8.084;2023-06-22T09:30:43;28.60;99.90
16408;DHT22;8313;49.894;8.084;2023-06-22T09:33:10;28.60;99.90
16408;DHT22;8313;49.894;8.084;2023-06-22T09:35:35;28.60;99.90
16408;DHT22;8313;49.894;8.084;2023-06-22T09:38:01;28.60;99.90
16408;DHT22;8313;49.894;8.084;2023-06-22T09:40:27;28.60;99.90
16408;DHT22;8313;49.894;8.084;2023-06-22T09:42:52;28.70;99.90
16408;DHT22;8313;49.894;8.084;2023-06-22T09:45:18;28.80;99.90
16408;DHT22;8313;49.894;8.084;2023-06-22T09:47:43;28.70;99.90
16408;DHT22;8313;49.894;8.084;2023-06-22T09:50:09;28.80;99.90
16408;DHT22;8313;49.894;8.084;2023-06-22T09:52:35;28.80;99.90
16408;DHT22;8313;49.894;8.084;2023-06-22T09:55:01;28.90;99.90
16408;DHT22;8313;49.894;8.084;2023-06-22T09:57:29;28.80;99.90
16408;DHT22;8313;49.894;8.084;2023-06-22T09:59:55;28.90;99.90
16408;DHT22;8313;49.894;8.084;2023-06-22T10:02:21;28.90;99.90
16408;DHT22;8313;49.894;8.084;2023-06-22T10:04:48;28.90;99.90
16408;DHT22;8313;49.894;8.084;2023-06-22T10:07:13;29.00;99.90
16408;DHT22;8313;49.894;8.084;2023-06-22T10:09:39;29.30;99.90
16408;DHT22;8313;49.894;8.084;2023-06-22T10:12:05;29.30;99.90
16408;DHT22;8313;49.894;8.084;2023-06-22T10:14:31;29.40;99.90
16408;DHT22;8313;49.894;8.084;2023-06-22T10:16:56;29.50;99.90
16408;DHT22;8313;49.894;8.084;2023-06-22T10:19:22;29.70;99.90
16408;DHT22;8313;49.894;8.084;2023-06-22T10:21:48;29.70;99.90
16408;DHT22;8313;49.894;8.084;2023-06-22T10:24:13;29.90;99.90
16408;DHT22;8313;49.894;8.084;2023-06-22T10:26:39;29.90;99.90
16408;DHT22;8313;49.894;8.084;2023-06-22T10:29:05;29.60;99.90
16408;DHT22;8313;49.894;8.084;2023-06-22T10:31:30;29.60;99.90
16408;DHT22;8313;49.894;8.084;2023-06-22T10:33:56;29.70;99.90
16408;DHT22;8313;49.894;8.084;2023-06-22T10:36:22;30.00;99.90
16408;DHT22;8313;49.894;8.084;2023-06-22T10:38:48;30.00;99.90
16408;DHT22;8313;49.894;8.084;2023-06-22T10:41:14;29.90;99.90
16408;DHT22;8313;49.894;8.084;2023-06-22T10:43:40;29.90;99.90
16408;DHT22;8313;49.894;8.084;2023-06-22T10:46:06;30.10;99.90
16408;DHT22;8313;49.894;8.084;2023-06-22T10:48:32;30.20;99.90
16408;DHT22;8313;49.894;8.084;2023-06-22T10:50:58;30.40;99.90
16408;DHT22;8313;49.894;8.084;2023-06-22T10:53:23;30.50;99.80
16408;DHT22;8313;49.894;8.084;2023-06-22T10:55:49;30.60;99.60
16408;DHT22;8313;49.894;8.084;2023-06-22T10:58:15;30.50;99.50
16408;DHT22;8313;49.894;8.084;2023-06-22T11:00:41;30.60;99.80
16408;DHT22;8313;49.894;8.084;2023-06-22T11:03:06;30.50;99.90
16408;DHT22;8313;49.894;8.084;2023-06-22T11:05:32;30.60;99.70
16408;DHT22;8313;49.894;8.084;2023-06-22T11:07:58;30.90;99.10
16408;DHT22;8313;49.894;8.084;2023-06-22T11:10:23;31.20;98.80
16408;DHT22;8313;49.894;8.084;2023-06-22T11:12:49;31.40;98.60
16408;DHT22;8313;49.894;8.084;2023-06-22T11:15:15;31.50;98.60
16408;DHT22;8313;49.894;8.084;2023-06-22T11:17:40;31.50;98.30
16408;DHT22;8313;49.894;8.084;2023-06-22T11:20:07;31.60;98.30
16408;DHT22;8313;49.894;8.084;2023-06-22T11:22:40;31.30;98.20
16408;DHT22;8313;49.894;8.084;2023-06-22T11:25:07;31.50;98.30
16408;DHT22;8313;49.894;8.084;2023-06-22T11:27:33;31.60;98.40
16408;DHT22;8313;49.894;8.084;2023-06-22T11:29:58;31.60;98.20
16408;DHT22;8313;49.894;8.084;2023-06-22T11:32:24;31.80;97.70
16408;DHT22;8313;49.894;8.084;2023-06-22T11:34:50;32.00;97.90
16408;DHT22;8313;49.894;8.084;2023-06-22T11:37:16;32.10;97.50
16408;DHT22;8313;49.894;8.084;2023-06-22T11:39:42;32.00;97.30
16408;DHT22;8313;49.894;8.084;2023-06-22T11:42:08;31.90;97.20
16408;DHT22;8313;49.894;8.084;2023-06-22T11:44:34;32.20;97.40
16408;DHT22;8313;49.894;8.084;2023-06-22T11:47:00;32.30;97.30
16408;DHT22;8313;49.894;8.084;2023-06-22T11:49:27;32.50;97.00
16408;DHT22;8313;49.894;8.084;2023-06-22T11:51:53;32.70;96.80
16408;DHT22;8313;49.894;8.084;2023-06-22T11:54:18;32.80;96.70
16408;DHT22;8313;49.894;8.084;2023-06-22T11:56:44;32.70;96.80
16408;DHT22;8313;49.894;8.084;2023-06-22T11:59:10;32.50;96.80
16408;DHT22;8313;49.894;8.084;2023-06-22T12:01:35;32.60;96.70
16408;DHT22;8313;49.894;8.084;2023-06-22T12:04:01;32.70;96.70
16408;DHT22;8313;49.894;8.084;2023-06-22T12:06:33;32.60;96.90
16408;DHT22;8313;49.894;8.084;2023-06-22T12:09:03;32.70;96.50
16408;DHT22;8313;49.894;8.084;2023-06-22T12:11:30;32.70;96.30
16408;DHT22;8313;49.894;8.084;2023-06-22T12:13:56;32.90;96.10
16408;DHT22;8313;49.894;8.084;2023-06-22T12:16:22;33.00;96.10
16408;DHT22;8313;49.894;8.084;2023-06-22T12:18:49;33.20;96.20
16408;DHT22;8313;49.894;8.084;2023-06-22T12:21:15;33.30;96.00
16408;DHT22;8313;49.894;8.084;2023-06-22T12:23:41;33.30;96.10
16408;DHT22;8313;49.894;8.084;2023-06-22T12:26:06;33.30;95.60
16408;DHT22;8313;49.894;8.084;2023-06-22T12:28:32;33.40;95.50
16408;DHT22;8313;49.894;8.084;2023-06-22T12:30:58;33.40;95.30
16408;DHT22;8313;49.894;8.084;2023-06-22T12:33:23;33.30;95.30
16408;DHT22;8313;49.894;8.084;2023-06-22T12:35:49;33.40;95.30
16408;DHT22;8313;49.894;8.084;2023-06-22T12:38:14;33.50;95.20
16408;DHT22;8313;49.894;8.084;2023-06-22T12:40:40;33.50;94.90
16408;DHT22;8313;49.894;8.084;2023-06-22T12:43:06;33.50;94.70
16408;DHT22;8313;49.894;8.084;2023-06-22T12:45:33;33.50;94.50
16408;DHT22;8313;49.894;8.084;2023-06-22T12:48:00;33.30;94.30
16408;DHT22;8313;49.894;8.084;2023-06-22T12:50:26;33.30;94.30
16408;DHT22;8313;49.894;8.084;2023-06-22T12:52:51;33.40;94.40
16408;DHT22;8313;49.894;8.084;2023-06-22T12:55:17;33.40;94.40
16408;DHT22;8313;49.894;8.084;2023-06-22T12:57:42;33.50;94.20
16408;DHT22;8313;49.894;8.084;2023-06-22T13:00:09;33.60;94.20
16408;DHT22;8313;49.894;8.084;2023-06-22T13:02:36;33.70;94.40
16408;DHT22;8313;49.894;8.084;2023-06-22T13:05:02;33.70;94.30
16408;DHT22;8313;49.894;8.084;2023-06-22T13:07:30;33.80;94.20
16408;DHT22;8313;49.894;8.084;2023-06-22T13:09:56;33.90;94.00
16408;DHT22;8313;49.894;8.084;2023-06-22T13:12:21;33.90;93.30
16408;DHT22;8313;49.894;8.084;2023-06-22T13:14:47;34.00;93.60
16408;DHT22;8313;49.894;8.084;2023-06-22T13:17:13;34.00;92.00
16408;DHT22;8313;49.894;8.084;2023-06-22T13:19:39;34.00;91.80
16408;DHT22;8313;49.894;8.084;2023-06-22T13:22:24;34.10;91.50
16408;DHT22;8313;49.894;8.084;2023-06-22T13:24:50;34.20;90.90
16408;DHT22;8313;49.894;8.084;2023-06-22T13:27:16;34.30;90.40
16408;DHT22;8313;49.894;8.084;2023-06-22T13:29:42;34.30;90.20
16408;DHT22;8313;49.894;8.084;2023-06-22T13:32:08;34.40;90.80
16408;DHT22;8313;49.894;8.084;2023-06-22T13:34:33;34.50;91.00
16408;DHT22;8313;49.894;8.084;2023-06-22T13:36:59;34.30;91.00
16408;DHT22;8313;49.894;8.084;2023-06-22T13:39:24;34.40;90.60
16408;DHT22;8313;49.894;8.084;2023-06-22T13:41:50;34.80;89.30
16408;DHT22;8313;49.894;8.084;2023-06-22T13:44:16;34.80;89.10
16408;DHT22;8313;49.894;8.084;2023-06-22T13:46:42;34.70;89.50
16408;DHT22;8313;49.894;8.084;2023-06-22T13:49:08;34.70;89.40
16408;DHT22;8313;49.894;8.084;2023-06-22T13:51:33;35.00;89.30
16408;DHT22;8313;49.894;8.084;2023-06-22T13:53:59;35.00;89.40
16408;DHT22;8313;49.894;8.084;2023-06-22T13:56:24;34.90;89.80
16408;DHT22;8313;49.894;8.084;2023-06-22T13:58:50;34.80;89.90
16408;DHT22;8313;49.894;8.084;2023-06-22T14:01:16;34.60;90.30
16408;DHT22;8313;49.894;8.084;2023-06-22T14:03:41;34.50;90.30
16408;DHT22;8313;49.894;8.084;2023-06-22T14:06:07;34.50;90.50
16408;DHT22;8313;49.894;8.084;2023-06-22T14:08:37;34.30;90.40
16408;DHT22;8313;49.894;8.084;2023-06-22T14:11:03;34.20;90.60
16408;DHT22;8313;49.894;8.084;2023-06-22T14:13:29;34.20;90.80
16408;DHT22;8313;49.894;8.084;2023-06-22T14:15:54;34.10;90.90
16408;DHT22;8313;49.894;8.084;2023-06-22T14:18:20;33.90;90.60
16408;DHT22;8313;49.894;8.084;2023-06-22T14:20:48;33.80;90.00
16408;DHT22;8313;49.894;8.084;2023-06-22T14:23:14;33.80;87.70
16408;DHT22;8313;49.894;8.084;2023-06-22T14:25:40;33.70;82.20
16408;DHT22;8313;49.894;8.084;2023-06-22T14:28:06;33.50;82.40
16408;DHT22;8313;49.894;8.084;2023-06-22T14:30:32;33.40;82.20
16408;DHT22;8313;49.894;8.084;2023-06-22T14:32:57;33.30;82.70
16408;DHT22;8313;49.894;8.084;2023-06-22T14:35:23;33.30;83.30
16408;DHT22;8313;49.894;8.084;2023-06-22T14:37:50;33.40;83.50
16408;DHT22;8313;49.894;8.084;2023-06-22T14:40:16;33.40;84.10
16408;DHT22;8313;49.894;8.084;2023-06-22T14:42:41;33.30;83.10
16408;DHT22;8313;49.894;8.084;2023-06-22T14:45:07;33.20;82.70
16408;DHT22;8313;49.894;8.084;2023-06-22T14:47:33;33.10;82.80
16408;DHT22;8313;49.894;8.084;2023-06-22T14:50:02;33.00;83.60
16408;DHT22;8313;49.894;8.084;2023-06-22T14:52:27;32.90;84.10
16408;DHT22;8313;49.894;8.084;2023-06-22T14:54:53;33.00;83.90
16408;DHT22;8313;49.894;8.084;2023-06-22T14:57:19;33.00;83.90
16408;DHT22;8313;49.894;8.084;2023-06-22T14:59:51;32.80;83.30
16408;DHT22;8313;49.894;8.084;2023-06-22T15:02:17;32.80;83.50
16408;DHT22;8313;49.894;8.084;2023-06-22T15:04:43;32.80;84.00
16408;DHT22;8313;49.894;8.084;2023-06-22T15:07:08;32.80;84.40
16408;DHT22;8313;49.894;8.084;2023-06-22T15:09:34;32.80;84.60
16408;DHT22;8313;49.894;8.084;2023-06-22T15:12:00;32.80;84.50
16408;DHT22;8313;49.894;8.084;2023-06-22T15:14:27;32.80;84.70
16408;DHT22;8313;49.894;8.084;2023-06-22T15:16:53;32.70;85.20
16408;DHT22;8313;49.894;8.084;2023-06-22T15:19:18;32.70;85.70
16408;DHT22;8313;49.894;8.084;2023-06-22T15:21:44;32.60;86.20
16408;DHT22;8313;49.894;8.084;2023-06-22T15:24:11;32.60;86.50
16408;DHT22;8313;49.894;8.084;2023-06-22T15:26:36;32.60;86.60
16408;DHT22;8313;49.894;8.084;2023-06-22T15:29:03;32.60;86.80
16408;DHT22;8313;49.894;8.084;2023-06-22T15:31:29;32.60;88.50
16408;DHT22;8313;49.894;8.084;2023-06-22T15:33:54;32.40;92.80
16408;DHT22;8313;49.894;8.084;2023-06-22T15:36:20;32.20;95.40
16408;DHT22;8313;49.894;8.084;2023-06-22T15:38:46;31.20;97.70
16408;DHT22;8313;49.894;8.084;2023-06-22T15:41:12;30.90;98.60
16408;DHT22;8313;49.894;8.084;2023-06-22T15:43:38;30.40;99.30
16408;DHT22;8313;49.894;8.084;2023-06-22T15:46:04;30.30;99.90